Terminal Aerodrome Forecast
Issued by NWS

Home | Current Version | Previous Version | Text Only | Print | Product List | Glossary On
Versions: 1 2 3 4 5 6 7 8 9 10 11 12 13 14 15 16 17
433
FTUS41 KCAR 202329
TAFPQI
TAF
KPQI 202329Z 2100/2124 09008KT 4SM -RAPL BR OVC015
     FM210400 12008KT 3SM -RAPL OVC008
     FM210900 16008KT 1SM -RA BR OVC003
     FM211500 20007KT P6SM VCSH OVC010 WS020/24040KT
     FM211700 22008KT P6SM VCSH OVC020 WS020/24040KT
     FM212200 29007KT P6SM BKN030=

USA.gov is the U.S. government's official web portal to all federal, state and local government web resources and services.